Pagina principale
METAR-TAF:

METAR-TAF

Aeroporti :

Aeroporto di Satu Mare

Satu Mare, Romania

latitudine: 47-48N, longitudine: 022-53E, altezza: 123 m

Osservazione

Il bollettino è stato emesso 38 minuti fa, alle 12:00 UTC
Vento 7 kt da ovest, variando fra sud-ovest e nord-ovest
Temperature 26°C
Umidità 51%
Pressione 1016 hPa
Visibilità 10 km o più
Nubi sparse ad un'altezza di 3800 ft

METAR: LRSM 171200Z 27007KT 220V320 9999 SCT038 26/15 Q1016

Ora: 15:38 (12:38 UTC)

Previsione

Il bollettino è stato emesso 1 ora e 38 minuti fa, alle 11:00 UTC
Previsione valida dal 17 alle 12 UTC al 17 alle 21 UTC
Vento 6 kt da ovest/nord-ovest
Visibilità 10 km o più
Nubi sparse ad un'altezza di 3500 ft

TAF: LRSM 171100Z 1712/1721 30006KT 9999 SCT035

Osservazioni e previsioni meteorologiche di più di 4000 aeroporti (messaggi METAR e TAF).

Le stazioni disponibili sono rappresentate dai dischi gialli e rossi sulla carta.

Puntare il mouse per vedere il nome della stazione.

Clicca sopra per visualizzare le osservazioni e previsioni meteorologiche.

Per cambiare la mappa : fare clic sui pulsanti verdi con una croce nera per ingrandire, il pulsante verde con un trattino per diminuire, o sulla freccia verde per le mappe adiacenti.


METAR-TAF: